sensor_id;sensor_type;location;lat;lon;timestamp;P1;durP1;ratioP1;P2;durP2;ratioP2
39078;SDS011;24829;49.208;12.080;2023-05-08T00:00:37;9.20;;;7.38;;
39078;SDS011;24829;49.208;12.080;2023-05-08T00:03:03;8.15;;;6.95;;
39078;SDS011;24829;49.208;12.080;2023-05-08T00:05:29;9.13;;;7.40;;
39078;SDS011;24829;49.208;12.080;2023-05-08T00:07:55;8.95;;;7.32;;
39078;SDS011;24829;49.208;12.080;2023-05-08T00:10:25;9.52;;;7.43;;
39078;SDS011;24829;49.208;12.080;2023-05-08T00:12:54;10.57;;;7.55;;
39078;SDS011;24829;49.208;12.080;2023-05-08T00:15:20;8.10;;;7.00;;
39078;SDS011;24829;49.208;12.080;2023-05-08T00:17:46;8.73;;;7.28;;
39078;SDS011;24829;49.208;12.080;2023-05-08T00:20:12;10.30;;;7.30;;
39078;SDS011;24829;49.208;12.080;2023-05-08T00:22:37;8.75;;;7.47;;
39078;SDS011;24829;49.208;12.080;2023-05-08T00:25:03;11.50;;;7.80;;
39078;SDS011;24829;49.208;12.080;2023-05-08T00:27:30;10.60;;;8.07;;
39078;SDS011;24829;49.208;12.080;2023-05-08T00:29:55;9.18;;;7.93;;
39078;SDS011;24829;49.208;12.080;2023-05-08T00:32:22;8.68;;;7.25;;
39078;SDS011;24829;49.208;12.080;2023-05-08T00:34:48;10.27;;;8.40;;
39078;SDS011;24829;49.208;12.080;2023-05-08T00:37:13;9.32;;;7.50;;
39078;SDS011;24829;49.208;12.080;2023-05-08T00:39:39;8.50;;;7.60;;
39078;SDS011;24829;49.208;12.080;2023-05-08T00:42:04;8.63;;;7.43;;
39078;SDS011;24829;49.208;12.080;2023-05-08T00:44:30;11.50;;;7.60;;
39078;SDS011;24829;49.208;12.080;2023-05-08T00:46:56;10.00;;;7.72;;
39078;SDS011;24829;49.208;12.080;2023-05-08T00:49:21;9.43;;;7.88;;
39078;SDS011;24829;49.208;12.080;2023-05-08T00:51:48;10.43;;;7.93;;
39078;SDS011;24829;49.208;12.080;2023-05-08T00:54:16;9.23;;;7.47;;
39078;SDS011;24829;49.208;12.080;2023-05-08T00:56:43;9.88;;;8.00;;
39078;SDS011;24829;49.208;12.080;2023-05-08T00:59:10;8.77;;;7.85;;
39078;SDS011;24829;49.208;12.080;2023-05-08T01:01:38;11.43;;;7.90;;
39078;SDS011;24829;49.208;12.080;2023-05-08T01:04:05;8.77;;;7.75;;
39078;SDS011;24829;49.208;12.080;2023-05-08T01:06:31;8.13;;;7.30;;
39078;SDS011;24829;49.208;12.080;2023-05-08T01:08:58;8.45;;;7.32;;
39078;SDS011;24829;49.208;12.080;2023-05-08T01:11:38;9.75;;;8.32;;
39078;SDS011;24829;49.208;12.080;2023-05-08T01:14:16;10.65;;;8.15;;
39078;SDS011;24829;49.208;12.080;2023-05-08T01:16:44;10.75;;;8.70;;
39078;SDS011;24829;49.208;12.080;2023-05-08T01:22:19;10.52;;;8.35;;
39078;SDS011;24829;49.208;12.080;2023-05-08T01:25:28;9.63;;;7.72;;
39078;SDS011;24829;49.208;12.080;2023-05-08T01:28:37;10.05;;;8.10;;
39078;SDS011;24829;49.208;12.080;2023-05-08T01:34:32;9.63;;;7.55;;
39078;SDS011;24829;49.208;12.080;2023-05-08T01:39:40;11.07;;;7.85;;
39078;SDS011;24829;49.208;12.080;2023-05-08T01:42:13;11.25;;;8.95;;
39078;SDS011;24829;49.208;12.080;2023-05-08T01:44:52;11.60;;;8.45;;
39078;SDS011;24829;49.208;12.080;2023-05-08T01:47:24;9.27;;;8.02;;
39078;SDS011;24829;49.208;12.080;2023-05-08T01:49:55;11.27;;;8.73;;
39078;SDS011;24829;49.208;12.080;2023-05-08T01:52:29;9.32;;;7.90;;
39078;SDS011;24829;49.208;12.080;2023-05-08T01:55:11;12.02;;;8.38;;
39078;SDS011;24829;49.208;12.080;2023-05-08T01:57:40;10.48;;;8.30;;
39078;SDS011;24829;49.208;12.080;2023-05-08T02:00:11;10.43;;;8.57;;
39078;SDS011;24829;49.208;12.080;2023-05-08T02:02:38;10.52;;;8.80;;
39078;SDS011;24829;49.208;12.080;2023-05-08T02:05:04;10.90;;;8.45;;
39078;SDS011;24829;49.208;12.080;2023-05-08T02:07:32;12.65;;;8.27;;
39078;SDS011;24829;49.208;12.080;2023-05-08T02:10:02;12.02;;;8.52;;
39078;SDS011;24829;49.208;12.080;2023-05-08T02:12:28;8.90;;;7.47;;
39078;SDS011;24829;49.208;12.080;2023-05-08T02:14:56;8.90;;;7.60;;
39078;SDS011;24829;49.208;12.080;2023-05-08T02:17:24;9.90;;;8.80;;
39078;SDS011;24829;49.208;12.080;2023-05-08T02:19:50;10.43;;;8.52;;
39078;SDS011;24829;49.208;12.080;2023-05-08T02:22:17;10.80;;;9.27;;
39078;SDS011;24829;49.208;12.080;2023-05-08T02:24:45;9.18;;;7.88;;
39078;SDS011;24829;49.208;12.080;2023-05-08T02:27:11;12.45;;;9.15;;
39078;SDS011;24829;49.208;12.080;2023-05-08T02:29:37;11.30;;;9.30;;
39078;SDS011;24829;49.208;12.080;2023-05-08T02:32:04;9.73;;;8.27;;
39078;SDS011;24829;49.208;12.080;2023-05-08T02:34:32;8.85;;;7.95;;
39078;SDS011;24829;49.208;12.080;2023-05-08T02:37:00;9.55;;;8.35;;
39078;SDS011;24829;49.208;12.080;2023-05-08T02:39:28;10.40;;;9.00;;
39078;SDS011;24829;49.208;12.080;2023-05-08T02:41:56;10.30;;;9.20;;
39078;SDS011;24829;49.208;12.080;2023-05-08T02:44:22;11.10;;;9.20;;
39078;SDS011;24829;49.208;12.080;2023-05-08T02:49:36;9.25;;;8.25;;
39078;SDS011;24829;49.208;12.080;2023-05-08T02:52:22;11.98;;;9.52;;
39078;SDS011;24829;49.208;12.080;2023-05-08T02:57:38;11.38;;;9.15;;
39078;SDS011;24829;49.208;12.080;2023-05-08T03:00:28;11.55;;;8.40;;
39078;SDS011;24829;49.208;12.080;2023-05-08T03:03:00;11.38;;;8.80;;
39078;SDS011;24829;49.208;12.080;2023-05-08T03:05:33;10.75;;;8.35;;
39078;SDS011;24829;49.208;12.080;2023-05-08T03:08:06;12.45;;;8.65;;
39078;SDS011;24829;49.208;12.080;2023-05-08T03:10:38;11.57;;;9.02;;
39078;SDS011;24829;49.208;12.080;2023-05-08T03:13:07;12.85;;;9.00;;
39078;SDS011;24829;49.208;12.080;2023-05-08T03:15:41;11.00;;;9.18;;
39078;SDS011;24829;49.208;12.080;2023-05-08T03:18:10;12.15;;;10.05;;
39078;SDS011;24829;49.208;12.080;2023-05-08T03:20:40;11.85;;;10.18;;
39078;SDS011;24829;49.208;12.080;2023-05-08T03:23:09;13.48;;;9.65;;
39078;SDS011;24829;49.208;12.080;2023-05-08T03:25:38;14.15;;;10.13;;
39078;SDS011;24829;49.208;12.080;2023-05-08T03:28:06;11.10;;;9.93;;
39078;SDS011;24829;49.208;12.080;2023-05-08T03:30:34;12.00;;;9.43;;
39078;SDS011;24829;49.208;12.080;2023-05-08T03:33:02;13.93;;;9.02;;
39078;SDS011;24829;49.208;12.080;2023-05-08T03:35:30;13.00;;;9.68;;
39078;SDS011;24829;49.208;12.080;2023-05-08T03:37:56;11.95;;;9.05;;
39078;SDS011;24829;49.208;12.080;2023-05-08T03:40:22;11.88;;;9.93;;
39078;SDS011;24829;49.208;12.080;2023-05-08T03:42:48;13.18;;;9.55;;
39078;SDS011;24829;49.208;12.080;2023-05-08T03:45:15;12.98;;;9.13;;
39078;SDS011;24829;49.208;12.080;2023-05-08T03:47:42;11.80;;;9.75;;
39078;SDS011;24829;49.208;12.080;2023-05-08T03:50:08;11.50;;;9.18;;
39078;SDS011;24829;49.208;12.080;2023-05-08T03:52:34;11.95;;;9.90;;
39078;SDS011;24829;49.208;12.080;2023-05-08T03:55:00;13.60;;;9.73;;
39078;SDS011;24829;49.208;12.080;2023-05-08T03:57:26;13.98;;;10.10;;
39078;SDS011;24829;49.208;12.080;2023-05-08T04:00:00;13.02;;;10.30;;
39078;SDS011;24829;49.208;12.080;2023-05-08T04:05:09;11.38;;;10.13;;
39078;SDS011;24829;49.208;12.080;2023-05-08T04:07:52;12.73;;;10.27;;
39078;SDS011;24829;49.208;12.080;2023-05-08T04:10:23;11.85;;;9.27;;
39078;SDS011;24829;49.208;12.080;2023-05-08T04:12:54;13.07;;;9.85;;
39078;SDS011;24829;49.208;12.080;2023-05-08T04:15:30;11.88;;;10.27;;
39078;SDS011;24829;49.208;12.080;2023-05-08T04:17:59;11.48;;;9.90;;
39078;SDS011;24829;49.208;12.080;2023-05-08T04:20:30;14.75;;;10.60;;
39078;SDS011;24829;49.208;12.080;2023-05-08T04:22:56;12.63;;;10.52;;
39078;SDS011;24829;49.208;12.080;2023-05-08T04:25:22;12.18;;;9.93;;
39078;SDS011;24829;49.208;12.080;2023-05-08T04:27:49;13.70;;;11.25;;
39078;SDS011;24829;49.208;12.080;2023-05-08T04:30:16;13.18;;;9.88;;
39078;SDS011;24829;49.208;12.080;2023-05-08T04:32:42;13.40;;;9.98;;
39078;SDS011;24829;49.208;12.080;2023-05-08T04:35:08;11.65;;;9.90;;
39078;SDS011;24829;49.208;12.080;2023-05-08T04:37:35;13.35;;;10.32;;
39078;SDS011;24829;49.208;12.080;2023-05-08T04:40:01;12.13;;;10.07;;
39078;SDS011;24829;49.208;12.080;2023-05-08T04:42:28;12.63;;;10.35;;
39078;SDS011;24829;49.208;12.080;2023-05-08T04:44:54;13.85;;;10.05;;
39078;SDS011;24829;49.208;12.080;2023-05-08T04:47:19;12.15;;;10.85;;
39078;SDS011;24829;49.208;12.080;2023-05-08T04:49:45;13.77;;;10.95;;
39078;SDS011;24829;49.208;12.080;2023-05-08T04:52:11;14.27;;;10.95;;
39078;SDS011;24829;49.208;12.080;2023-05-08T04:54:37;13.48;;;10.52;;
39078;SDS011;24829;49.208;12.080;2023-05-08T04:57:02;14.23;;;10.43;;
39078;SDS011;24829;49.208;12.080;2023-05-08T04:59:28;14.82;;;9.88;;
39078;SDS011;24829;49.208;12.080;2023-05-08T05:01:54;12.32;;;10.52;;
39078;SDS011;24829;49.208;12.080;2023-05-08T05:04:20;13.75;;;10.48;;
39078;SDS011;24829;49.208;12.080;2023-05-08T05:06:46;14.25;;;10.65;;
39078;SDS011;24829;49.208;12.080;2023-05-08T05:09:12;11.27;;;10.07;;
39078;SDS011;24829;49.208;12.080;2023-05-08T05:11:37;12.15;;;9.23;;
39078;SDS011;24829;49.208;12.080;2023-05-08T05:14:03;13.70;;;10.90;;
39078;SDS011;24829;49.208;12.080;2023-05-08T05:16:28;14.18;;;10.50;;
39078;SDS011;24829;49.208;12.080;2023-05-08T05:18:54;13.10;;;11.30;;
39078;SDS011;24829;49.208;12.080;2023-05-08T05:21:20;14.13;;;10.05;;
39078;SDS011;24829;49.208;12.080;2023-05-08T05:23:45;15.07;;;10.68;;
39078;SDS011;24829;49.208;12.080;2023-05-08T05:26:11;11.25;;;9.65;;
39078;SDS011;24829;49.208;12.080;2023-05-08T05:28:36;11.95;;;10.75;;
39078;SDS011;24829;49.208;12.080;2023-05-08T05:31:02;17.08;;;10.63;;
39078;SDS011;24829;49.208;12.080;2023-05-08T05:33:28;11.43;;;9.82;;
39078;SDS011;24829;49.208;12.080;2023-05-08T05:35:53;11.93;;;10.30;;
39078;SDS011;24829;49.208;12.080;2023-05-08T05:38:19;14.05;;;11.23;;
39078;SDS011;24829;49.208;12.080;2023-05-08T05:40:44;13.85;;;11.85;;
39078;SDS011;24829;49.208;12.080;2023-05-08T05:43:10;13.45;;;10.93;;
39078;SDS011;24829;49.208;12.080;2023-05-08T05:45:36;13.90;;;11.48;;
39078;SDS011;24829;49.208;12.080;2023-05-08T05:48:03;13.38;;;11.55;;
39078;SDS011;24829;49.208;12.080;2023-05-08T05:50:28;16.23;;;10.65;;
39078;SDS011;24829;49.208;12.080;2023-05-08T05:52:54;12.18;;;10.38;;
39078;SDS011;24829;49.208;12.080;2023-05-08T05:55:20;13.98;;;11.02;;
39078;SDS011;24829;49.208;12.080;2023-05-08T05:57:46;13.07;;;10.73;;
39078;SDS011;24829;49.208;12.080;2023-05-08T06:00:12;13.45;;;10.25;;
39078;SDS011;24829;49.208;12.080;2023-05-08T06:02:38;13.82;;;10.35;;
39078;SDS011;24829;49.208;12.080;2023-05-08T06:05:04;13.65;;;9.27;;
39078;SDS011;24829;49.208;12.080;2023-05-08T06:07:30;12.43;;;10.98;;
39078;SDS011;24829;49.208;12.080;2023-05-08T06:09:56;12.75;;;10.82;;
39078;SDS011;24829;49.208;12.080;2023-05-08T06:12:21;10.80;;;9.70;;
39078;SDS011;24829;49.208;12.080;2023-05-08T06:14:47;12.95;;;10.45;;
39078;SDS011;24829;49.208;12.080;2023-05-08T06:17:12;14.23;;;9.88;;
39078;SDS011;24829;49.208;12.080;2023-05-08T06:19:38;9.90;;;8.93;;
39078;SDS011;24829;49.208;12.080;2023-05-08T06:22:03;13.20;;;9.68;;
39078;SDS011;24829;49.208;12.080;2023-05-08T06:24:29;10.80;;;8.75;;
39078;SDS011;24829;49.208;12.080;2023-05-08T06:26:55;14.70;;;9.65;;
39078;SDS011;24829;49.208;12.080;2023-05-08T06:29:21;12.15;;;8.70;;
39078;SDS011;24829;49.208;12.080;2023-05-08T06:31:46;10.02;;;8.45;;
39078;SDS011;24829;49.208;12.080;2023-05-08T06:34:12;10.18;;;9.05;;
39078;SDS011;24829;49.208;12.080;2023-05-08T06:36:37;10.40;;;8.88;;
39078;SDS011;24829;49.208;12.080;2023-05-08T06:39:03;13.25;;;8.50;;
39078;SDS011;24829;49.208;12.080;2023-05-08T06:41:30;17.48;;;8.38;;
39078;SDS011;24829;49.208;12.080;2023-05-08T06:43:56;10.25;;;7.75;;
39078;SDS011;24829;49.208;12.080;2023-05-08T06:46:21;9.95;;;8.30;;
39078;SDS011;24829;49.208;12.080;2023-05-08T06:48:47;9.27;;;8.30;;
39078;SDS011;24829;49.208;12.080;2023-05-08T06:51:13;9.80;;;8.60;;
39078;SDS011;24829;49.208;12.080;2023-05-08T06:53:39;10.93;;;8.60;;
39078;SDS011;24829;49.208;12.080;2023-05-08T06:56:04;8.73;;;7.90;;
39078;SDS011;24829;49.208;12.080;2023-05-08T06:58:30;9.70;;;8.32;;
39078;SDS011;24829;49.208;12.080;2023-05-08T07:00:58;11.70;;;8.50;;
39078;SDS011;24829;49.208;12.080;2023-05-08T07:03:24;11.20;;;8.40;;
39078;SDS011;24829;49.208;12.080;2023-05-08T07:05:50;14.55;;;9.15;;
39078;SDS011;24829;49.208;12.080;2023-05-08T07:08:16;20.48;;;9.23;;
39078;SDS011;24829;49.208;12.080;2023-05-08T07:10:41;14.75;;;11.13;;
39078;SDS011;24829;49.208;12.080;2023-05-08T07:13:07;12.85;;;10.45;;
39078;SDS011;24829;49.208;12.080;2023-05-08T07:15:32;12.23;;;10.43;;
39078;SDS011;24829;49.208;12.080;2023-05-08T07:17:58;13.80;;;9.88;;
39078;SDS011;24829;49.208;12.080;2023-05-08T07:20:23;13.90;;;10.20;;
39078;SDS011;24829;49.208;12.080;2023-05-08T07:22:49;14.23;;;9.98;;
39078;SDS011;24829;49.208;12.080;2023-05-08T07:25:14;18.33;;;12.15;;
39078;SDS011;24829;49.208;12.080;2023-05-08T07:27:41;16.08;;;11.27;;
39078;SDS011;24829;49.208;12.080;2023-05-08T07:30:06;10.45;;;9.18;;
39078;SDS011;24829;49.208;12.080;2023-05-08T07:32:32;14.32;;;10.55;;
39078;SDS011;24829;49.208;12.080;2023-05-08T07:34:58;10.23;;;8.75;;
39078;SDS011;24829;49.208;12.080;2023-05-08T07:37:23;14.95;;;9.82;;
39078;SDS011;24829;49.208;12.080;2023-05-08T07:39:49;11.90;;;9.05;;
39078;SDS011;24829;49.208;12.080;2023-05-08T07:42:15;10.98;;;9.73;;
39078;SDS011;24829;49.208;12.080;2023-05-08T07:44:42;11.68;;;9.25;;
39078;SDS011;24829;49.208;12.080;2023-05-08T07:47:08;11.55;;;9.18;;
39078;SDS011;24829;49.208;12.080;2023-05-08T07:49:33;10.15;;;8.93;;
39078;SDS011;24829;49.208;12.080;2023-05-08T07:51:59;11.35;;;9.65;;
39078;SDS011;24829;49.208;12.080;2023-05-08T07:54:24;10.75;;;9.52;;
39078;SDS011;24829;49.208;12.080;2023-05-08T07:56:50;11.80;;;8.65;;
39078;SDS011;24829;49.208;12.080;2023-05-08T07:59:16;10.40;;;9.30;;
39078;SDS011;24829;49.208;12.080;2023-05-08T08:01:42;11.63;;;9.30;;
39078;SDS011;24829;49.208;12.080;2023-05-08T08:04:11;10.77;;;9.52;;
39078;SDS011;24829;49.208;12.080;2023-05-08T08:06:37;12.30;;;9.80;;
39078;SDS011;24829;49.208;12.080;2023-05-08T08:09:03;10.63;;;9.43;;
39078;SDS011;24829;49.208;12.080;2023-05-08T08:11:28;12.75;;;9.43;;
39078;SDS011;24829;49.208;12.080;2023-05-08T08:13:54;12.30;;;9.40;;
39078;SDS011;24829;49.208;12.080;2023-05-08T08:16:20;13.30;;;9.25;;
39078;SDS011;24829;49.208;12.080;2023-05-08T08:18:45;12.00;;;9.05;;
39078;SDS011;24829;49.208;12.080;2023-05-08T08:21:11;13.50;;;9.18;;
39078;SDS011;24829;49.208;12.080;2023-05-08T08:23:36;9.52;;;8.52;;
39078;SDS011;24829;49.208;12.080;2023-05-08T08:26:02;11.75;;;8.05;;
39078;SDS011;24829;49.208;12.080;2023-05-08T08:28:27;9.85;;;8.85;;
39078;SDS011;24829;49.208;12.080;2023-05-08T08:30:53;9.70;;;8.35;;
39078;SDS011;24829;49.208;12.080;2023-05-08T08:33:18;9.98;;;8.75;;
39078;SDS011;24829;49.208;12.080;2023-05-08T08:35:44;10.63;;;7.80;;
39078;SDS011;24829;49.208;12.080;2023-05-08T08:38:10;8.80;;;7.82;;
39078;SDS011;24829;49.208;12.080;2023-05-08T08:40:39;9.25;;;8.40;;
39078;SDS011;24829;49.208;12.080;2023-05-08T08:43:05;10.90;;;7.93;;
39078;SDS011;24829;49.208;12.080;2023-05-08T08:45:31;7.85;;;7.05;;
39078;SDS011;24829;49.208;12.080;2023-05-08T08:47:56;9.23;;;7.75;;
39078;SDS011;24829;49.208;12.080;2023-05-08T08:50:26;11.20;;;8.68;;
39078;SDS011;24829;49.208;12.080;2023-05-08T08:53:06;9.88;;;7.78;;
39078;SDS011;24829;49.208;12.080;2023-05-08T08:55:39;10.45;;;8.18;;
39078;SDS011;24829;49.208;12.080;2023-05-08T09:01:12;10.23;;;8.90;;
39078;SDS011;24829;49.208;12.080;2023-05-08T09:03:40;8.68;;;7.75;;
39078;SDS011;24829;49.208;12.080;2023-05-08T09:06:05;8.50;;;7.60;;
39078;SDS011;24829;49.208;12.080;2023-05-08T09:08:31;9.18;;;7.55;;
39078;SDS011;24829;49.208;12.080;2023-05-08T09:10:58;9.45;;;7.47;;
39078;SDS011;24829;49.208;12.080;2023-05-08T09:13:26;7.60;;;6.90;;
39078;SDS011;24829;49.208;12.080;2023-05-08T09:15:53;18.05;;;7.28;;
39078;SDS011;24829;49.208;12.080;2023-05-08T09:18:19;7.90;;;7.20;;
39078;SDS011;24829;49.208;12.080;2023-05-08T09:20:44;10.05;;;7.80;;
39078;SDS011;24829;49.208;12.080;2023-05-08T09:23:11;8.80;;;7.78;;
39078;SDS011;24829;49.208;12.080;2023-05-08T09:25:48;8.05;;;7.25;;
39078;SDS011;24829;49.208;12.080;2023-05-08T09:28:17;9.07;;;8.00;;
39078;SDS011;24829;49.208;12.080;2023-05-08T09:30:48;11.63;;;8.10;;
39078;SDS011;24829;49.208;12.080;2023-05-08T09:33:22;9.50;;;7.25;;
39078;SDS011;24829;49.208;12.080;2023-05-08T09:35:51;9.05;;;7.22;;
39078;SDS011;24829;49.208;12.080;2023-05-08T09:41:05;9.50;;;7.15;;
39078;SDS011;24829;49.208;12.080;2023-05-08T09:43:34;10.32;;;7.10;;
39078;SDS011;24829;49.208;12.080;2023-05-08T09:48:46;7.78;;;7.07;;
39078;SDS011;24829;49.208;12.080;2023-05-08T09:51:12;11.45;;;6.97;;
39078;SDS011;24829;49.208;12.080;2023-05-08T09:53:38;9.23;;;7.22;;
39078;SDS011;24829;49.208;12.080;2023-05-08T09:56:04;8.48;;;6.75;;
39078;SDS011;24829;49.208;12.080;2023-05-08T09:58:40;9.60;;;6.95;;
39078;SDS011;24829;49.208;12.080;2023-05-08T10:01:07;9.23;;;6.20;;
39078;SDS011;24829;49.208;12.080;2023-05-08T10:03:51;8.40;;;7.55;;
39078;SDS011;24829;49.208;12.080;2023-05-08T10:06:16;9.27;;;7.07;;
39078;SDS011;24829;49.208;12.080;2023-05-08T10:08:42;9.52;;;7.70;;
39078;SDS011;24829;49.208;12.080;2023-05-08T10:11:17;7.10;;;6.38;;
39078;SDS011;24829;49.208;12.080;2023-05-08T10:13:44;8.52;;;7.10;;
39078;SDS011;24829;49.208;12.080;2023-05-08T10:16:13;7.40;;;6.70;;
39078;SDS011;24829;49.208;12.080;2023-05-08T10:18:45;10.57;;;7.25;;
39078;SDS011;24829;49.208;12.080;2023-05-08T10:21:13;9.40;;;7.30;;
39078;SDS011;24829;49.208;12.080;2023-05-08T10:23:40;8.52;;;7.63;;
39078;SDS011;24829;49.208;12.080;2023-05-08T10:26:10;7.97;;;6.32;;
39078;SDS011;24829;49.208;12.080;2023-05-08T10:31:23;7.05;;;6.00;;
39078;SDS011;24829;49.208;12.080;2023-05-08T10:33:53;11.98;;;9.55;;
39078;SDS011;24829;49.208;12.080;2023-05-08T10:36:22;7.10;;;6.40;;
39078;SDS011;24829;49.208;12.080;2023-05-08T10:38:47;10.45;;;7.10;;
39078;SDS011;24829;49.208;12.080;2023-05-08T10:41:14;21.95;;;10.65;;
39078;SDS011;24829;49.208;12.080;2023-05-08T10:43:43;23.52;;;10.57;;
39078;SDS011;24829;49.208;12.080;2023-05-08T10:49:11;6.97;;;6.28;;
39078;SDS011;24829;49.208;12.080;2023-05-08T10:54:37;8.43;;;6.80;;
39078;SDS011;24829;49.208;12.080;2023-05-08T10:57:11;6.78;;;6.05;;
39078;SDS011;24829;49.208;12.080;2023-05-08T10:59:37;7.47;;;5.80;;
39078;SDS011;24829;49.208;12.080;2023-05-08T11:02:06;7.82;;;6.60;;
39078;SDS011;24829;49.208;12.080;2023-05-08T11:04:32;10.00;;;6.53;;
39078;SDS011;24829;49.208;12.080;2023-05-08T11:06:58;8.80;;;6.32;;
39078;SDS011;24829;49.208;12.080;2023-05-08T11:09:28;8.93;;;5.20;;
39078;SDS011;24829;49.208;12.080;2023-05-08T11:15:04;10.88;;;7.05;;
39078;SDS011;24829;49.208;12.080;2023-05-08T11:17:31;12.05;;;6.75;;
39078;SDS011;24829;49.208;12.080;2023-05-08T11:19:58;7.22;;;5.88;;
39078;SDS011;24829;49.208;12.080;2023-05-08T11:22:28;6.78;;;6.07;;
39078;SDS011;24829;49.208;12.080;2023-05-08T11:30:45;25.83;;;7.45;;
39078;SDS011;24829;49.208;12.080;2023-05-08T11:38:25;7.18;;;5.85;;
39078;SDS011;24829;49.208;12.080;2023-05-08T11:41:09;8.05;;;5.50;;
39078;SDS011;24829;49.208;12.080;2023-05-08T11:49:17;6.75;;;6.15;;
39078;SDS011;24829;49.208;12.080;2023-05-08T11:51:45;8.93;;;6.90;;
39078;SDS011;24829;49.208;12.080;2023-05-08T11:54:16;7.30;;;6.28;;
39078;SDS011;24829;49.208;12.080;2023-05-08T11:56:50;7.10;;;6.40;;
39078;SDS011;24829;49.208;12.080;2023-05-08T11:59:18;6.43;;;5.65;;
39078;SDS011;24829;49.208;12.080;2023-05-08T12:01:44;8.75;;;5.82;;
39078;SDS011;24829;49.208;12.080;2023-05-08T12:04:12;7.95;;;5.82;;
39078;SDS011;24829;49.208;12.080;2023-05-08T12:06:38;6.82;;;5.57;;
39078;SDS011;24829;49.208;12.080;2023-05-08T12:09:11;6.10;;;5.30;;
39078;SDS011;24829;49.208;12.080;2023-05-08T12:11:39;11.10;;;7.22;;
39078;SDS011;24829;49.208;12.080;2023-05-08T12:14:07;7.47;;;5.63;;
39078;SDS011;24829;49.208;12.080;2023-05-08T12:16:36;7.13;;;5.85;;
39078;SDS011;24829;49.208;12.080;2023-05-08T12:19:03;7.40;;;5.60;;
39078;SDS011;24829;49.208;12.080;2023-05-08T12:21:33;8.35;;;5.72;;
39078;SDS011;24829;49.208;12.080;2023-05-08T12:23:59;9.43;;;5.68;;
39078;SDS011;24829;49.208;12.080;2023-05-08T12:26:24;9.52;;;6.50;;
39078;SDS011;24829;49.208;12.080;2023-05-08T12:28:54;8.93;;;5.63;;
39078;SDS011;24829;49.208;12.080;2023-05-08T12:31:20;9.10;;;5.80;;
39078;SDS011;24829;49.208;12.080;2023-05-08T12:33:47;7.07;;;6.10;;
39078;SDS011;24829;49.208;12.080;2023-05-08T12:36:12;8.52;;;6.00;;
39078;SDS011;24829;49.208;12.080;2023-05-08T12:38:38;8.43;;;6.18;;
39078;SDS011;24829;49.208;12.080;2023-05-08T12:41:03;7.03;;;5.88;;
39078;SDS011;24829;49.208;12.080;2023-05-08T12:43:33;9.15;;;5.47;;
39078;SDS011;24829;49.208;12.080;2023-05-08T12:46:00;8.40;;;6.15;;
39078;SDS011;24829;49.208;12.080;2023-05-08T12:48:26;8.25;;;7.35;;
39078;SDS011;24829;49.208;12.080;2023-05-08T12:50:52;8.93;;;6.53;;
39078;SDS011;24829;49.208;12.080;2023-05-08T12:53:19;19.52;;;6.75;;
39078;SDS011;24829;49.208;12.080;2023-05-08T12:55:53;10.60;;;6.57;;
39078;SDS011;24829;49.208;12.080;2023-05-08T12:58:23;7.45;;;5.85;;
39078;SDS011;24829;49.208;12.080;2023-05-08T13:00:50;26.95;;;6.60;;
39078;SDS011;24829;49.208;12.080;2023-05-08T13:03:22;8.82;;;5.13;;
39078;SDS011;24829;49.208;12.080;2023-05-08T13:05:49;5.80;;;5.00;;
39078;SDS011;24829;49.208;12.080;2023-05-08T13:08:15;8.32;;;6.18;;
39078;SDS011;24829;49.208;12.080;2023-05-08T13:13:19;7.75;;;5.97;;
39078;SDS011;24829;49.208;12.080;2023-05-08T13:15:49;10.13;;;6.18;;
39078;SDS011;24829;49.208;12.080;2023-05-08T13:18:15;6.32;;;5.35;;
39078;SDS011;24829;49.208;12.080;2023-05-08T13:20:42;10.90;;;6.22;;
39078;SDS011;24829;49.208;12.080;2023-05-08T13:23:08;8.27;;;6.22;;
39078;SDS011;24829;49.208;12.080;2023-05-08T13:25:34;8.00;;;5.47;;
39078;SDS011;24829;49.208;12.080;2023-05-08T13:28:01;8.15;;;5.18;;
39078;SDS011;24829;49.208;12.080;2023-05-08T13:30:27;12.93;;;6.40;;
39078;SDS011;24829;49.208;12.080;2023-05-08T13:32:53;35.22;;;22.05;;
39078;SDS011;24829;49.208;12.080;2023-05-08T13:35:18;10.77;;;6.82;;
39078;SDS011;24829;49.208;12.080;2023-05-08T13:37:45;7.65;;;6.85;;
39078;SDS011;24829;49.208;12.080;2023-05-08T13:40:11;10.68;;;4.40;;
39078;SDS011;24829;49.208;12.080;2023-05-08T13:42:37;12.57;;;4.88;;
39078;SDS011;24829;49.208;12.080;2023-05-08T13:45:04;7.93;;;4.68;;
39078;SDS011;24829;49.208;12.080;2023-05-08T13:47:30;5.90;;;4.40;;
39078;SDS011;24829;49.208;12.080;2023-05-08T13:49:55;7.35;;;4.68;;
39078;SDS011;24829;49.208;12.080;2023-05-08T13:52:21;7.55;;;4.03;;
39078;SDS011;24829;49.208;12.080;2023-05-08T13:54:47;7.65;;;4.95;;
39078;SDS011;24829;49.208;12.080;2023-05-08T13:57:12;6.60;;;4.88;;
39078;SDS011;24829;49.208;12.080;2023-05-08T13:59:38;5.85;;;4.47;;
39078;SDS011;24829;49.208;12.080;2023-05-08T14:02:03;9.52;;;4.10;;
39078;SDS011;24829;49.208;12.080;2023-05-08T14:04:29;15.05;;;5.28;;
39078;SDS011;24829;49.208;12.080;2023-05-08T14:06:55;9.35;;;5.15;;
39078;SDS011;24829;49.208;12.080;2023-05-08T14:09:21;10.57;;;5.10;;
39078;SDS011;24829;49.208;12.080;2023-05-08T14:11:46;8.15;;;4.47;;
39078;SDS011;24829;49.208;12.080;2023-05-08T14:14:12;7.43;;;5.18;;
39078;SDS011;24829;49.208;12.080;2023-05-08T14:16:37;6.47;;;4.10;;
39078;SDS011;24829;49.208;12.080;2023-05-08T14:19:03;8.68;;;4.60;;
39078;SDS011;24829;49.208;12.080;2023-05-08T14:21:28;6.10;;;4.15;;
39078;SDS011;24829;49.208;12.080;2023-05-08T14:23:55;5.32;;;3.88;;
39078;SDS011;24829;49.208;12.080;2023-05-08T14:26:20;11.38;;;7.80;;
39078;SDS011;24829;49.208;12.080;2023-05-08T14:28:46;6.93;;;4.80;;
39078;SDS011;24829;49.208;12.080;2023-05-08T14:31:12;5.57;;;4.60;;
39078;SDS011;24829;49.208;12.080;2023-05-08T14:33:37;4.07;;;3.55;;
39078;SDS011;24829;49.208;12.080;2023-05-08T14:36:03;4.30;;;3.70;;
39078;SDS011;24829;49.208;12.080;2023-05-08T14:38:28;4.93;;;4.03;;
39078;SDS011;24829;49.208;12.080;2023-05-08T14:40:54;6.35;;;3.83;;
39078;SDS011;24829;49.208;12.080;2023-05-08T14:43:20;4.38;;;3.67;;
39078;SDS011;24829;49.208;12.080;2023-05-08T14:45:46;7.35;;;4.65;;
39078;SDS011;24829;49.208;12.080;2023-05-08T14:48:12;6.97;;;4.88;;
39078;SDS011;24829;49.208;12.080;2023-05-08T14:50:37;7.97;;;5.30;;
39078;SDS011;24829;49.208;12.080;2023-05-08T14:53:03;6.60;;;5.03;;
39078;SDS011;24829;49.208;12.080;2023-05-08T14:55:28;5.47;;;3.72;;
39078;SDS011;24829;49.208;12.080;2023-05-08T14:57:54;5.25;;;4.43;;
39078;SDS011;24829;49.208;12.080;2023-05-08T15:00:20;3.97;;;3.55;;
39078;SDS011;24829;49.208;12.080;2023-05-08T15:02:46;4.68;;;4.18;;
39078;SDS011;24829;49.208;12.080;2023-05-08T15:05:11;6.65;;;4.00;;
39078;SDS011;24829;49.208;12.080;2023-05-08T15:07:37;15.60;;;9.60;;
39078;SDS011;24829;49.208;12.080;2023-05-08T15:10:03;8.75;;;4.65;;
39078;SDS011;24829;49.208;12.080;2023-05-08T15:12:29;6.22;;;3.78;;
39078;SDS011;24829;49.208;12.080;2023-05-08T15:14:54;5.80;;;4.05;;
39078;SDS011;24829;49.208;12.080;2023-05-08T15:17:20;9.00;;;4.05;;
39078;SDS011;24829;49.208;12.080;2023-05-08T15:19:45;3.53;;;3.13;;
39078;SDS011;24829;49.208;12.080;2023-05-08T15:22:11;6.10;;;3.60;;
39078;SDS011;24829;49.208;12.080;2023-05-08T15:24:37;6.32;;;3.85;;